createdAt,value
2023-04-16T00:01:16.306Z,6.45
2023-04-16T00:03:44.165Z,6.44
2023-04-16T00:06:12.665Z,6.40
2023-04-16T00:08:41.068Z,6.34
2023-04-16T00:11:08.661Z,6.27
2023-04-16T00:13:36.565Z,6.21
2023-04-16T00:16:04.181Z,6.21
2023-04-16T00:18:34.142Z,6.17
2023-04-16T00:21:01.818Z,6.11
2023-04-16T00:23:29.458Z,6.11
2023-04-16T00:26:00.178Z,6.09
2023-04-16T00:28:28.504Z,6.05
2023-04-16T00:30:56.790Z,6.04
2023-04-16T00:33:24.790Z,5.97
2023-04-16T00:35:52.524Z,5.93
2023-04-16T00:38:20.088Z,5.89
2023-04-16T00:40:47.728Z,5.86
2023-04-16T00:43:24.830Z,5.86
2023-04-16T00:45:54.140Z,5.83
2023-04-16T00:48:22.119Z,5.83
2023-04-16T00:50:52.142Z,5.84
2023-04-16T00:53:19.942Z,5.85
2023-04-16T00:55:50.300Z,5.91
2023-04-16T00:58:18.409Z,5.96
2023-04-16T01:00:46.047Z,6.02
2023-04-16T01:03:13.915Z,6.14
2023-04-16T01:05:42.059Z,6.17
2023-04-16T01:08:20.260Z,6.30
2023-04-16T01:10:47.974Z,6.31
2023-04-16T01:13:15.878Z,6.34
2023-04-16T01:15:43.501Z,6.37
2023-04-16T01:18:18.171Z,6.40
2023-04-16T01:20:48.955Z,6.43
2023-04-16T01:23:18.531Z,6.44
2023-04-16T01:25:47.133Z,6.50
2023-04-16T01:28:14.766Z,6.52
2023-04-16T01:30:42.538Z,6.51
2023-04-16T01:33:18.039Z,6.51
2023-04-16T01:35:46.067Z,6.43
2023-04-16T01:38:13.679Z,6.53
2023-04-16T01:40:41.330Z,6.51
2023-04-16T01:43:09.025Z,6.53
2023-04-16T01:45:36.804Z,6.53
2023-04-16T01:48:05.408Z,6.49
2023-04-16T01:50:33.136Z,6.46
2023-04-16T01:53:02.028Z,6.40
2023-04-16T01:55:31.997Z,6.37
2023-04-16T01:57:59.648Z,6.36
2023-04-16T02:00:29.491Z,6.35
2023-04-16T02:02:57.571Z,6.33
2023-04-16T02:05:25.249Z,6.37
2023-04-16T02:07:55.307Z,6.32
2023-04-16T02:10:23.482Z,6.30
2023-04-16T02:12:51.214Z,6.29
2023-04-16T02:15:18.837Z,6.25
2023-04-16T02:17:51.031Z,6.24
2023-04-16T02:20:18.827Z,6.25
2023-04-16T02:22:46.429Z,6.22
2023-04-16T02:25:14.422Z,6.20
2023-04-16T02:27:44.409Z,6.19
2023-04-16T02:30:14.657Z,6.18
2023-04-16T02:32:42.324Z,6.13
2023-04-16T02:35:10.078Z,6.08
2023-04-16T02:37:37.669Z,6.08
2023-04-16T02:40:05.503Z,6.03
2023-04-16T02:42:33.072Z,6.09
2023-04-16T02:45:02.925Z,6.11
2023-04-16T02:47:30.781Z,6.07
2023-04-16T02:49:58.372Z,6.02
2023-04-16T02:52:25.915Z,6.00
2023-04-16T02:54:55.858Z,6.03
2023-04-16T02:57:23.520Z,6.04
2023-04-16T02:59:51.142Z,5.99
2023-04-16T03:02:18.848Z,5.97
2023-04-16T03:04:46.640Z,5.96
2023-04-16T03:07:14.238Z,5.89
2023-04-16T03:09:41.835Z,5.88
2023-04-16T03:12:09.503Z,5.88
2023-04-16T03:14:37.128Z,5.87
2023-04-16T03:17:09.617Z,5.86
2023-04-16T03:19:39.738Z,5.89
2023-04-16T03:22:10.941Z,5.94
2023-04-16T03:24:40.947Z,5.98
2023-04-16T03:27:08.535Z,5.97
2023-04-16T03:29:38.406Z,5.95
2023-04-16T03:32:06.348Z,5.91
2023-04-16T03:34:33.914Z,5.95
2023-04-16T03:37:01.561Z,5.95
2023-04-16T03:39:29.134Z,5.94
2023-04-16T03:41:56.771Z,5.88
2023-04-16T03:44:24.434Z,5.89
2023-04-16T03:46:52.122Z,5.88
2023-04-16T03:49:22.222Z,5.90
2023-04-16T03:51:49.813Z,5.86
2023-04-16T03:54:17.442Z,5.96
2023-04-16T03:56:47.191Z,5.98
2023-04-16T03:59:14.805Z,5.95
2023-04-16T04:01:42.508Z,5.97
2023-04-16T04:04:10.604Z,5.97
2023-04-16T04:06:38.243Z,5.99
2023-04-16T04:09:07.038Z,6.04
2023-04-16T04:11:34.743Z,6.13
2023-04-16T04:14:02.302Z,6.20
2023-04-16T04:16:32.899Z,6.31
2023-04-16T04:19:01.206Z,6.44
2023-04-16T04:21:31.496Z,6.55
2023-04-16T04:23:59.107Z,6.60
2023-04-16T04:26:26.714Z,6.75
2023-04-16T04:28:54.300Z,6.87
2023-04-16T04:31:21.962Z,6.92
2023-04-16T04:33:52.059Z,7.01
2023-04-16T04:36:19.624Z,7.09
2023-04-16T04:38:47.334Z,7.18
2023-04-16T04:41:14.942Z,7.24
2023-04-16T04:43:44.917Z,7.31
2023-04-16T04:46:12.562Z,7.33
2023-04-16T04:48:40.420Z,7.36
2023-04-16T04:51:08.075Z,7.42
2023-04-16T04:53:35.812Z,7.50
2023-04-16T04:56:12.122Z,7.54
2023-04-16T04:58:42.943Z,7.57
2023-04-16T05:01:10.656Z,7.52
2023-04-16T05:03:38.432Z,7.62
2023-04-16T05:06:06.252Z,7.66
2023-04-16T05:08:33.893Z,7.66
2023-04-16T05:11:01.609Z,7.72
2023-04-16T05:13:29.204Z,7.78
2023-04-16T05:15:56.770Z,7.81
2023-04-16T05:18:24.432Z,7.87
2023-04-16T05:20:52.044Z,7.88
2023-04-16T05:23:19.674Z,7.92
2023-04-16T05:25:47.331Z,7.94
2023-04-16T05:28:14.912Z,7.99
2023-04-16T05:30:42.559Z,8.03
2023-04-16T05:33:12.546Z,8.09
2023-04-16T05:35:40.132Z,8.15
2023-04-16T05:38:07.730Z,8.18
2023-04-16T05:40:37.791Z,8.22
2023-04-16T05:43:07.717Z,8.26
2023-04-16T05:45:39.840Z,8.30
2023-04-16T05:48:11.861Z,8.35
2023-04-16T05:50:39.558Z,8.38
2023-04-16T05:53:10.978Z,8.43
2023-04-16T05:55:38.577Z,8.49
2023-04-16T05:58:08.931Z,8.53
2023-04-16T06:00:41.455Z,8.60
2023-04-16T06:03:11.493Z,8.63
2023-04-16T06:05:39.282Z,8.71
2023-04-16T06:08:06.887Z,8.76
2023-04-16T06:10:36.945Z,8.69
2023-04-16T06:13:04.785Z,8.70
2023-04-16T06:15:32.466Z,8.60
2023-04-16T06:18:01.056Z,8.54
2023-04-16T06:20:29.011Z,8.63
2023-04-16T06:22:57.436Z,8.70
2023-04-16T06:25:25.097Z,8.88
2023-04-16T06:27:52.855Z,9.06
2023-04-16T06:30:20.996Z,9.22
2023-04-16T06:32:48.714Z,9.33
2023-04-16T06:35:16.389Z,9.55
2023-04-16T06:37:43.996Z,9.69
2023-04-16T06:40:14.240Z,9.71
2023-04-16T06:42:43.599Z,9.76
2023-04-16T06:45:13.371Z,10.12
2023-04-16T06:47:41.374Z,10.38
2023-04-16T06:50:09.314Z,10.67
2023-04-16T06:52:37.005Z,10.90
2023-04-16T06:55:08.307Z,11.06
2023-04-16T06:57:37.492Z,10.86
2023-04-16T07:00:06.096Z,11.04
2023-04-16T07:02:36.365Z,11.18
2023-04-16T07:05:06.566Z,11.21
2023-04-16T07:07:34.234Z,11.41
2023-04-16T07:10:02.505Z,11.48
2023-04-16T07:12:33.076Z,11.47
2023-04-16T07:15:00.680Z,11.77
2023-04-16T07:17:28.341Z,12.10
2023-04-16T07:19:55.956Z,12.15
2023-04-16T07:22:23.538Z,12.57
2023-04-16T07:24:51.189Z,12.62
2023-04-16T07:27:18.832Z,12.64
2023-04-16T07:29:46.702Z,13.07
2023-04-16T07:32:19.367Z,13.17
2023-04-16T07:34:47.139Z,13.17
2023-04-16T07:37:14.718Z,13.35
2023-04-16T07:39:42.323Z,14.09
2023-04-16T07:42:09.991Z,14.46
2023-04-16T07:44:37.620Z,14.71
2023-04-16T07:47:05.866Z,15.13
2023-04-16T07:49:33.678Z,15.14
2023-04-16T07:52:01.359Z,14.40
2023-04-16T07:54:29.278Z,14.14
2023-04-16T07:56:56.953Z,13.89
2023-04-16T07:59:24.689Z,13.65
2023-04-16T08:01:55.013Z,13.35
2023-04-16T08:04:25.514Z,13.46
2023-04-16T08:06:53.889Z,13.20
2023-04-16T08:09:24.969Z,12.78
2023-04-16T08:11:52.697Z,12.50
2023-04-16T08:14:20.455Z,12.48
2023-04-16T08:16:50.483Z,12.72
2023-04-16T08:19:18.459Z,13.23
2023-04-16T08:21:46.143Z,13.84
2023-04-16T08:24:13.856Z,14.12
2023-04-16T08:26:41.640Z,14.11
2023-04-16T08:29:09.448Z,14.52
2023-04-16T08:31:37.651Z,14.26
2023-04-16T08:34:05.460Z,14.72
2023-04-16T08:36:33.035Z,15.05
2023-04-16T08:39:00.820Z,14.70
2023-04-16T08:41:31.840Z,14.32
2023-04-16T08:44:03.064Z,14.04
2023-04-16T08:46:35.241Z,13.77
2023-04-16T08:49:05.539Z,13.46
2023-04-16T08:51:36.336Z,13.49
2023-04-16T08:54:13.195Z,13.23
2023-04-16T08:56:43.308Z,13.10
2023-04-16T08:59:11.513Z,13.27
2023-04-16T09:01:41.857Z,13.70
2023-04-16T09:04:12.450Z,14.19
2023-04-16T09:06:42.645Z,15.17
2023-04-16T09:09:12.486Z,14.84
2023-04-16T09:11:44.306Z,15.02
2023-04-16T09:14:12.831Z,15.06
2023-04-16T09:16:40.995Z,14.78
2023-04-16T09:19:11.387Z,14.81
2023-04-16T09:21:41.933Z,14.46
2023-04-16T09:24:10.898Z,14.24
2023-04-16T09:26:38.676Z,14.09
2023-04-16T09:29:06.723Z,13.96
2023-04-16T09:31:34.391Z,13.92
2023-04-16T09:34:07.447Z,13.72
2023-04-16T09:36:37.926Z,13.64
2023-04-16T09:39:08.183Z,13.46
2023-04-16T09:41:39.504Z,13.48
2023-04-16T09:44:07.127Z,13.45
2023-04-16T09:46:42.665Z,13.41
2023-04-16T09:49:18.962Z,13.17
2023-04-16T09:51:48.385Z,13.15
2023-04-16T09:54:16.140Z,13.17
2023-04-16T09:56:47.348Z,13.22
2023-04-16T09:59:19.134Z,13.24
2023-04-16T10:01:49.441Z,13.56
2023-04-16T10:04:17.670Z,13.88
2023-04-16T10:06:48.451Z,14.23
2023-04-16T10:09:16.196Z,14.64
2023-04-16T10:11:44.079Z,15.19
2023-04-16T10:14:14.139Z,15.42
2023-04-16T10:16:41.920Z,15.35
2023-04-16T10:19:10.160Z,15.32
2023-04-16T10:21:41.278Z,15.61
2023-04-16T10:24:16.572Z,15.52
2023-04-16T10:26:45.272Z,15.95
2023-04-16T10:29:15.585Z,16.17
2023-04-16T10:31:46.049Z,16.52
2023-04-16T10:34:14.369Z,16.14
2023-04-16T10:36:41.999Z,16.69
2023-04-16T10:39:16.998Z,17.08
2023-04-16T10:41:45.923Z,17.48
2023-04-16T10:44:17.665Z,17.81
2023-04-16T10:46:50.244Z,18.49
2023-04-16T10:49:24.550Z,18.51
2023-04-16T10:51:55.863Z,18.53
2023-04-16T10:54:28.843Z,18.77
2023-04-16T10:57:04.615Z,18.92
2023-04-16T10:59:35.010Z,18.99
2023-04-16T11:02:08.657Z,19.38
2023-04-16T11:04:43.418Z,19.45
2023-04-16T11:07:16.975Z,19.00
2023-04-16T11:09:57.573Z,19.54
2023-04-16T11:12:29.100Z,19.60
2023-04-16T11:15:08.196Z,19.74
2023-04-16T11:17:50.488Z,20.29
2023-04-16T11:20:25.486Z,19.05
2023-04-16T11:22:55.487Z,18.49
2023-04-16T11:25:24.706Z,18.11
2023-04-16T11:27:53.199Z,17.60
2023-04-16T11:30:33.916Z,17.71
2023-04-16T11:33:11.305Z,17.70
2023-04-16T11:35:40.459Z,17.59
2023-04-16T11:38:10.424Z,17.49
2023-04-16T11:40:39.468Z,17.32
2023-04-16T11:43:17.692Z,17.06
2023-04-16T11:46:07.517Z,17.19
2023-04-16T11:48:54.310Z,17.06
2023-04-16T11:51:23.412Z,16.67
2023-04-16T11:53:52.990Z,16.63
2023-04-16T11:56:31.688Z,16.74
2023-04-16T11:59:12.556Z,16.79
2023-04-16T12:01:42.850Z,16.70
2023-04-16T12:04:10.801Z,16.85
2023-04-16T12:06:38.706Z,17.11
2023-04-16T12:09:27.185Z,17.42
2023-04-16T12:11:57.448Z,17.72
2023-04-16T12:14:25.337Z,18.22
2023-04-16T12:16:53.101Z,17.91
2023-04-16T12:19:20.889Z,18.18
2023-04-16T12:21:50.716Z,18.24
2023-04-16T12:24:22.713Z,18.34
2023-04-16T12:26:56.001Z,18.40
2023-04-16T12:29:27.921Z,18.66
2023-04-16T12:31:55.803Z,18.69
2023-04-16T12:34:46.749Z,18.31
2023-04-16T12:37:12.382Z,18.00
2023-04-16T12:39:39.984Z,18.02
2023-04-16T12:42:11.255Z,17.86
2023-04-16T12:44:38.851Z,17.81
2023-04-16T12:47:06.683Z,17.81
2023-04-16T12:49:34.345Z,18.07
2023-04-16T12:52:01.957Z,18.09
2023-04-16T12:54:31.169Z,18.36
2023-04-16T12:56:58.805Z,18.31
2023-04-16T12:59:26.388Z,18.13
2023-04-16T13:01:54.106Z,18.15
2023-04-16T13:04:24.230Z,17.95
2023-04-16T13:06:53.187Z,18.07
2023-04-16T13:09:20.786Z,17.95
2023-04-16T13:11:48.402Z,18.27
2023-04-16T13:14:16.004Z,18.07
2023-04-16T13:16:43.690Z,18.24
2023-04-16T13:19:14.047Z,18.35
2023-04-16T13:21:41.713Z,18.52
2023-04-16T13:24:09.396Z,18.33
2023-04-16T13:26:37.104Z,18.13
2023-04-16T13:29:04.802Z,18.01
2023-04-16T13:31:32.509Z,18.00
2023-04-16T13:34:00.140Z,17.96
2023-04-16T13:36:28.107Z,17.91
2023-04-16T13:38:58.186Z,17.88
2023-04-16T13:41:26.322Z,17.49
2023-04-16T13:43:55.104Z,17.51
2023-04-16T13:46:22.916Z,17.30
2023-04-16T13:48:50.552Z,17.47
2023-04-16T13:51:18.168Z,17.58
2023-04-16T13:53:48.027Z,17.58
2023-04-16T13:56:20.316Z,17.32
2023-04-16T13:58:52.592Z,17.27
2023-04-16T14:01:20.613Z,17.27
2023-04-16T14:03:48.326Z,16.84
2023-04-16T14:06:18.051Z,16.78
2023-04-16T14:08:46.180Z,16.88
2023-04-16T14:11:13.815Z,16.89
2023-04-16T14:13:41.466Z,16.91
2023-04-16T14:16:09.660Z,16.96
2023-04-16T14:18:41.084Z,16.87
2023-04-16T14:21:11.250Z,16.94
2023-04-16T14:23:38.833Z,16.90
2023-04-16T14:26:07.722Z,16.84
2023-04-16T14:28:35.713Z,16.81
2023-04-16T14:31:07.287Z,16.83
2023-04-16T14:33:34.938Z,16.72
2023-04-16T14:36:03.357Z,16.70
2023-04-16T14:38:36.288Z,16.63
2023-04-16T14:41:03.935Z,16.59
2023-04-16T14:43:31.737Z,16.46
2023-04-16T14:46:03.520Z,16.33
2023-04-16T14:48:31.206Z,16.28
2023-04-16T14:50:58.873Z,16.15
2023-04-16T14:53:32.134Z,16.04
2023-04-16T14:56:00.056Z,15.94
2023-04-16T14:58:27.838Z,15.83
2023-04-16T15:00:55.606Z,15.80
2023-04-16T15:03:23.494Z,15.71
2023-04-16T15:05:55.899Z,15.62
2023-04-16T15:08:24.466Z,15.62
2023-04-16T15:10:52.544Z,15.61
2023-04-16T15:13:20.264Z,15.62
2023-04-16T15:15:48.840Z,15.61
2023-04-16T15:18:16.803Z,15.58
2023-04-16T15:20:44.412Z,15.57
2023-04-16T15:23:12.044Z,15.58
2023-04-16T15:25:39.718Z,15.58
2023-04-16T15:28:07.326Z,15.59
2023-04-16T15:30:35.018Z,15.51
2023-04-16T15:33:02.767Z,15.59
2023-04-16T15:35:30.481Z,15.68
2023-04-16T15:37:58.620Z,15.72
2023-04-16T15:40:26.631Z,15.69
2023-04-16T15:42:56.591Z,15.75
2023-04-16T15:45:24.636Z,15.77
2023-04-16T15:47:55.433Z,15.78
2023-04-16T15:50:23.108Z,15.75
2023-04-16T15:52:53.028Z,15.72
2023-04-16T15:55:21.024Z,15.66
2023-04-16T15:57:51.409Z,15.57
2023-04-16T16:00:19.765Z,15.42
2023-04-16T16:02:48.314Z,15.30
2023-04-16T16:05:17.435Z,15.27
2023-04-16T16:07:45.553Z,15.16
2023-04-16T16:10:14.163Z,15.07
2023-04-16T16:12:42.454Z,15.00
2023-04-16T16:15:13.502Z,14.93
2023-04-16T16:17:41.695Z,14.92
2023-04-16T16:20:10.744Z,14.82
2023-04-16T16:22:39.171Z,14.73
2023-04-16T16:25:08.428Z,14.62
2023-04-16T16:27:38.518Z,14.59
2023-04-16T16:30:09.025Z,14.54
2023-04-16T16:32:37.722Z,14.50
2023-04-16T16:35:05.701Z,14.53
2023-04-16T16:37:33.330Z,14.52
2023-04-16T16:40:03.461Z,14.52
2023-04-16T16:42:31.741Z,14.54
2023-04-16T16:45:05.097Z,14.53
2023-04-16T16:47:33.647Z,14.54
2023-04-16T16:50:03.989Z,14.54
2023-04-16T16:52:32.111Z,14.55
2023-04-16T16:54:59.694Z,14.53
2023-04-16T16:57:27.345Z,14.49
2023-04-16T16:59:55.656Z,14.45
2023-04-16T17:02:24.019Z,14.43
2023-04-16T17:04:52.805Z,14.41
2023-04-16T17:07:20.914Z,14.38
2023-04-16T17:09:48.518Z,14.35
2023-04-16T17:12:18.227Z,14.30
2023-04-16T17:14:50.487Z,14.22
2023-04-16T17:17:18.441Z,14.18
2023-04-16T17:19:46.063Z,14.12
2023-04-16T17:22:13.709Z,14.15
2023-04-16T17:24:41.382Z,14.15
2023-04-16T17:27:09.062Z,14.11
2023-04-16T17:29:39.158Z,14.12
2023-04-16T17:32:09.359Z,14.05
2023-04-16T17:34:37.024Z,14.10
2023-04-16T17:37:06.795Z,14.01
2023-04-16T17:39:36.529Z,14.00
2023-04-16T17:42:04.253Z,14.02
2023-04-16T17:44:31.878Z,13.99
2023-04-16T17:46:59.564Z,13.88
2023-04-16T17:49:29.522Z,13.80
2023-04-16T17:51:59.336Z,13.73
2023-04-16T17:54:29.168Z,13.68
2023-04-16T17:56:57.459Z,13.63
2023-04-16T17:59:25.159Z,13.58
2023-04-16T18:01:53.028Z,13.57
2023-04-16T18:04:20.780Z,13.55
2023-04-16T18:06:48.518Z,13.54
2023-04-16T18:09:19.503Z,13.55
2023-04-16T18:11:47.206Z,13.62
2023-04-16T18:14:19.706Z,13.68
2023-04-16T18:16:50.386Z,13.61
2023-04-16T18:19:18.061Z,13.56
2023-04-16T18:21:45.771Z,13.52
2023-04-16T18:24:18.177Z,13.48
2023-04-16T18:26:47.050Z,13.41
2023-04-16T18:29:18.209Z,13.44
2023-04-16T18:31:48.442Z,13.42
2023-04-16T18:34:18.544Z,13.38
2023-04-16T18:36:46.229Z,13.34
2023-04-16T18:39:14.057Z,13.31
2023-04-16T18:41:43.956Z,13.29
2023-04-16T18:44:11.784Z,13.26
2023-04-16T18:46:39.393Z,13.24
2023-04-16T18:49:07.088Z,13.23
2023-04-16T18:51:34.696Z,13.19
2023-04-16T18:54:02.308Z,13.17
2023-04-16T18:56:32.795Z,13.13
2023-04-16T18:59:05.035Z,13.10
2023-04-16T19:01:32.644Z,13.11
2023-04-16T19:04:00.371Z,13.09
2023-04-16T19:06:29.201Z,13.09
2023-04-16T19:08:59.272Z,13.09
2023-04-16T19:11:27.138Z,13.11
2023-04-16T19:13:54.927Z,13.10
2023-04-16T19:16:24.815Z,13.13
2023-04-16T19:18:52.414Z,13.11
2023-04-16T19:21:20.040Z,13.15
2023-04-16T19:23:52.632Z,13.18
2023-04-16T19:26:20.917Z,13.24
2023-04-16T19:28:50.662Z,13.22
2023-04-16T19:31:18.353Z,13.17
2023-04-16T19:33:46.093Z,13.24
2023-04-16T19:36:16.207Z,13.25
2023-04-16T19:38:43.829Z,13.19
2023-04-16T19:41:11.452Z,13.18
2023-04-16T19:43:39.043Z,13.16
2023-04-16T19:46:06.672Z,13.12
2023-04-16T19:48:34.325Z,13.05
2023-04-16T19:51:05.638Z,13.01
2023-04-16T19:53:34.391Z,12.93
2023-04-16T19:56:02.297Z,12.89
2023-04-16T19:58:32.559Z,12.88
2023-04-16T20:01:02.694Z,12.84
2023-04-16T20:03:30.509Z,12.83
2023-04-16T20:06:01.984Z,12.87
2023-04-16T20:08:29.635Z,12.85
2023-04-16T20:10:57.284Z,12.86
2023-04-16T20:13:24.890Z,12.88
2023-04-16T20:15:56.415Z,12.89
2023-04-16T20:18:24.866Z,12.90
2023-04-16T20:20:53.176Z,12.92
2023-04-16T20:23:23.119Z,12.93
2023-04-16T20:25:50.891Z,12.90
2023-04-16T20:28:21.457Z,13.00
2023-04-16T20:30:50.878Z,13.05
2023-04-16T20:33:20.701Z,13.07
2023-04-16T20:35:49.111Z,13.09
2023-04-16T20:38:18.282Z,13.08
2023-04-16T20:40:47.156Z,13.11
2023-04-16T20:43:18.697Z,13.14
2023-04-16T20:45:46.284Z,13.13
2023-04-16T20:48:13.888Z,13.13
2023-04-16T20:50:41.470Z,13.10
2023-04-16T20:53:09.044Z,13.09
2023-04-16T20:55:36.640Z,13.08
2023-04-16T20:58:04.215Z,13.11
2023-04-16T21:00:31.809Z,13.13
2023-04-16T21:02:59.558Z,13.19
2023-04-16T21:05:30.022Z,13.19
2023-04-16T21:07:57.601Z,13.16
2023-04-16T21:10:25.264Z,13.15
2023-04-16T21:12:52.817Z,13.15
2023-04-16T21:15:20.461Z,13.04
2023-04-16T21:17:48.106Z,13.21
2023-04-16T21:20:15.951Z,13.22
2023-04-16T21:22:43.608Z,13.20
2023-04-16T21:25:11.391Z,13.21
2023-04-16T21:27:41.119Z,13.24
2023-04-16T21:30:09.485Z,13.22
2023-04-16T21:32:37.151Z,13.23
2023-04-16T21:35:05.110Z,13.26
2023-04-16T21:37:35.093Z,13.25
2023-04-16T21:40:03.667Z,13.17
2023-04-16T21:42:33.653Z,13.20
2023-04-16T21:45:01.244Z,13.18
2023-04-16T21:47:28.784Z,13.16
2023-04-16T21:49:58.493Z,13.24
2023-04-16T21:52:26.074Z,13.21
2023-04-16T21:54:58.555Z,13.23
2023-04-16T21:57:26.175Z,13.18
2023-04-16T21:59:53.828Z,13.15
2023-04-16T22:02:21.757Z,13.10
2023-04-16T22:04:49.430Z,13.04
2023-04-16T22:07:20.807Z,12.98
2023-04-16T22:09:48.416Z,13.00
2023-04-16T22:12:16.003Z,12.96
2023-04-16T22:14:52.319Z,12.96
2023-04-16T22:17:29.440Z,12.95
2023-04-16T22:19:57.252Z,12.98
2023-04-16T22:22:27.392Z,12.98
2023-04-16T22:24:54.954Z,12.98
2023-04-16T22:27:22.970Z,12.97
2023-04-16T22:29:50.804Z,12.96
2023-04-16T22:32:18.559Z,12.97
2023-04-16T22:34:46.367Z,13.01
2023-04-16T22:37:16.270Z,13.02
2023-04-16T22:39:43.911Z,13.03
2023-04-16T22:42:13.882Z,13.02
2023-04-16T22:44:41.445Z,13.00
2023-04-16T22:47:09.080Z,12.97
2023-04-16T22:49:38.900Z,12.92
2023-04-16T22:52:06.689Z,12.89
2023-04-16T22:54:34.676Z,12.84
2023-04-16T22:57:02.271Z,12.86
2023-04-16T22:59:29.916Z,12.81
2023-04-16T23:02:02.573Z,12.81
2023-04-16T23:04:30.265Z,12.81
2023-04-16T23:06:57.926Z,12.77
2023-04-16T23:09:25.642Z,12.77
2023-04-16T23:11:53.217Z,12.76
2023-04-16T23:14:21.378Z,12.78
2023-04-16T23:16:49.002Z,12.77
2023-04-16T23:19:16.669Z,12.77
2023-04-16T23:21:44.630Z,12.80
2023-04-16T23:24:12.216Z,12.81
2023-04-16T23:26:39.810Z,12.86
2023-04-16T23:29:07.624Z,12.89
2023-04-16T23:31:35.346Z,12.90
2023-04-16T23:34:02.918Z,12.91
2023-04-16T23:36:32.958Z,12.94
2023-04-16T23:39:00.783Z,12.98
2023-04-16T23:41:28.373Z,12.94
2023-04-16T23:43:57.085Z,12.92
2023-04-16T23:46:24.787Z,12.90
2023-04-16T23:48:55.210Z,12.94
2023-04-16T23:51:22.863Z,12.87
2023-04-16T23:53:50.451Z,12.87
2023-04-16T23:56:18.425Z,12.85
2023-04-16T23:58:46.023Z,12.80
